Time;durP1;ratioP1;P1;durP2;ratioP2;P2;SDS_P1;SDS_P2;PMS_P1;PMS_P2;Temp;Humidity;BMP_temperature;BMP_pressure;BME280_temperature;BME280_humidity;BME280_pressure;Samples;Min_cycle;Max_cycle;Signal;HPM_P1;HPM_P2
2023/02/10 00:00:40;;;;;;;;;;;;;;;;;;5030098;28;19921;-83
2023/02/10 00:03:06;;;;;;;;;;;;;;;;;;5025610;28;19928;-83
2023/02/10 00:05:32;;;;;;;;;;;;;;;;;;5047798;28;20295;-84
2023/02/10 00:07:58;;;;;;;;;;;;;;;;;;5034774;28;20861;-84
2023/02/10 00:10:24;;;;;;;;;;;;;;;;;;5028262;28;20027;-84
2023/02/10 00:12:50;;;;;;;;;;;;;;;;;;5038710;28;20432;-83
2023/02/10 00:15:15;;;;;;;;;;;;;;;;;;5034436;28;19924;-84
2023/02/10 00:17:41;;;;;;;;;;;;;;;;;;5051932;28;20310;-83
2023/02/10 00:20:07;;;;;;;;;;;;;;;;;;5032043;28;20378;-83
2023/02/10 00:22:33;;;;;;;;;;;;;;;;;;5033248;28;20427;-83
2023/02/10 00:24:59;;;;;;;;;;;;;;;;;;5030303;28;19936;-84
2023/02/10 00:27:25;;;;;;;;;;;;;;;;;;5033156;28;19928;-83
2023/02/10 00:29:51;;;;;;;;;;;;;;;;;;5045840;28;19932;-83
2023/02/10 00:32:17;;;;;;;;;;;;;;;;;;5035103;28;20047;-83
2023/02/10 00:34:43;;;;;;;;;;;;;;;;;;5027257;28;19928;-84
2023/02/10 00:37:09;;;;;;;;;;;;;;;;;;5030679;28;20331;-84
2023/02/10 00:39:35;;;;;;;;;;;;;;;;;;5029757;28;20450;-84
2023/02/10 00:42:01;;;;;;;;;;;;;;;;;;5027552;28;20015;-83
2023/02/10 00:44:27;;;;;;;;;;;;;;;;;;5030472;28;20015;-83
2023/02/10 00:46:53;;;;;;;;;;;;;;;;;;5033334;28;20066;-83
2023/02/10 00:49:19;;;;;;;;;;;;;;;;;;5030495;28;19932;-83
2023/02/10 00:51:45;;;;;;;;;;;;;;;;;;5026343;28;19940;-84
2023/02/10 00:54:11;;;;;;;;;;;;;;;;;;5049145;28;19932;-84
2023/02/10 00:56:37;;;;;;;;;;;;;;;;;;5046929;28;20431;-84
2023/02/10 00:59:03;;;;;;;;;;;;;;;;;;5027844;28;19928;-85
2023/02/10 01:01:29;;;;;;;;;;;;;;;;;;5025654;28;20361;-84
2023/02/10 01:03:55;;;;;;;;;;;;;;;;;;5039092;28;19994;-83
2023/02/10 01:06:21;;;;;;;;;;;;;;;;;;5030477;28;19925;-84
2023/02/10 01:08:46;;;;;;;;;;;;;;;;;;5038131;28;20043;-83
2023/02/10 01:11:12;;;;;;;;;;;;;;;;;;5020236;28;20018;-84
2023/02/10 01:13:38;;;;;;;;;;;;;;;;;;5028756;28;19920;-84
2023/02/10 01:16:04;;;;;;;;;;;;;;;;;;5031804;28;20391;-84
2023/02/10 01:18:30;;;;;;;;;;;;;;;;;;5044669;28;19929;-84
2023/02/10 01:20:56;;;;;;;;;;;;;;;;;;5027621;28;20446;-84
2023/02/10 01:23:22;;;;;;;;;;;;;;;;;;5029315;28;20042;-85
2023/02/10 01:25:48;;;;;;;;;;;;;;;;;;5025497;28;19982;-85
2023/02/10 01:28:14;;;;;;;;;;;;;;;;;;5046992;28;19920;-85
2023/02/10 01:30:40;;;;;;;;;;;;;;;;;;5025024;28;20011;-85
2023/02/10 01:33:06;;;;;;;;;;;;;;;;;;5023355;28;19975;-84
2023/02/10 01:35:32;;;;;;;;;;;;;;;;;;5024618;28;19970;-85
2023/02/10 01:37:58;;;;;;;;;;;;;;;;;;5023409;28;19982;-85
2023/02/10 01:40:24;;;;;;;;;;;;;;;;;;5030613;28;19936;-84
2023/02/10 01:42:50;;;;;;;;;;;;;;;;;;5025058;28;19928;-85
2023/02/10 01:45:16;;;;;;;;;;;;;;;;;;5027515;28;19989;-84
2023/02/10 01:47:42;;;;;;;;;;;;;;;;;;5026425;28;19924;-84
2023/02/10 01:50:08;;;;;;;;;;;;;;;;;;5027494;28;19928;-84
2023/02/10 01:52:33;;;;;;;;;;;;;;;;;;5037116;28;19927;-84
2023/02/10 01:54:59;;;;;;;;;;;;;;;;;;5035711;28;20015;-84
2023/02/10 01:57:25;;;;;;;;;;;;;;;;;;5031781;28;19978;-85
2023/02/10 01:59:51;;;;;;;;;;;;;;;;;;5024913;28;19925;-84
2023/02/10 02:02:17;;;;;;;;;;;;;;;;;;5032985;28;19931;-82
2023/02/10 02:04:43;;;;;;;;;;;;;;;;;;5052950;28;19924;-83
2023/02/10 02:07:09;;;;;;;;;;;;;;;;;;5032040;28;20626;-83
2023/02/10 02:09:35;;;;;;;;;;;;;;;;;;5046461;28;19932;-82
2023/02/10 02:12:01;;;;;;;;;;;;;;;;;;5027973;28;20490;-82
2023/02/10 02:14:27;;;;;;;;;;;;;;;;;;5032529;28;19971;-83
2023/02/10 02:16:53;;;;;;;;;;;;;;;;;;5030619;28;19940;-83
2023/02/10 02:19:19;;;;;;;;;;;;;;;;;;5033120;28;19928;-84
2023/02/10 02:21:45;;;;;;;;;;;;;;;;;;5033027;28;19924;-83
2023/02/10 02:24:11;;;;;;;;;;;;;;;;;;5040652;28;19928;-83
2023/02/10 02:26:37;;;;;;;;;;;;;;;;;;5032874;28;19924;-83
2023/02/10 02:29:02;;;;;;;;;;;;;;;;;;5028822;28;20007;-83
2023/02/10 02:31:28;;;;;;;;;;;;;;;;;;5052578;28;20269;-84
2023/02/10 02:33:54;;;;;;;;;;;;;;;;;;5046039;28;19920;-83
2023/02/10 02:36:20;;;;;;;;;;;;;;;;;;5030489;28;19924;-84
2023/02/10 02:38:46;;;;;;;;;;;;;;;;;;5039620;28;20026;-84
2023/02/10 02:41:12;;;;;;;;;;;;;;;;;;5031613;28;19921;-84
2023/02/10 02:43:38;;;;;;;;;;;;;;;;;;5045417;28;19921;-84
2023/02/10 02:46:04;;;;;;;;;;;;;;;;;;5031800;28;19954;-84
2023/02/10 02:48:30;;;;;;;;;;;;;;;;;;5046421;28;19985;-83
2023/02/10 02:50:56;;;;;;;;;;;;;;;;;;5043855;28;19920;-84
2023/02/10 02:53:22;;;;;;;;;;;;;;;;;;5039441;28;19925;-84
2023/02/10 02:55:48;;;;;;;;;;;;;;;;;;5042177;28;19925;-83
2023/02/10 02:58:13;;;;;;;;;;;;;;;;;;5044383;28;20264;-83
2023/02/10 03:00:39;;;;;;;;;;;;;;;;;;5037746;28;19985;-84
2023/02/10 03:03:05;;;;;;;;;;;;;;;;;;5030583;28;20432;-84
2023/02/10 03:05:31;;;;;;;;;;;;;;;;;;5049012;28;19940;-84
2023/02/10 03:07:57;;;;;;;;;;;;;;;;;;5027745;28;19993;-84
2023/02/10 03:10:23;;;;;;;;;;;;;;;;;;5024620;28;19920;-84
2023/02/10 03:12:50;;;;;;;;;;;;;;;;;;5031086;28;20512;-84
2023/02/10 03:15:16;;;;;;;;;;;;;;;;;;5033443;28;19920;-83
2023/02/10 03:17:42;;;;;;;;;;;;;;;;;;5026815;28;21510;-84
2023/02/10 03:20:08;;;;;;;;;;;;;;;;;;5049722;28;20000;-84
2023/02/10 03:22:34;;;;;;;;;;;;;;;;;;5032987;28;19920;-83
2023/02/10 03:25:00;;;;;;;;;;;;;;;;;;5028488;28;20161;-84
2023/02/10 03:27:26;;;;;;;;;;;;;;;;;;5033024;28;19990;-83
2023/02/10 03:29:52;;;;;;;;;;;;;;;;;;5032886;28;20011;-84
2023/02/10 03:32:18;;;;;;;;;;;;;;;;;;5038468;28;19928;-84
2023/02/10 03:34:43;;;;;;;;;;;;;;;;;;5033949;28;19978;-84
2023/02/10 03:37:09;;;;;;;;;;;;;;;;;;5055660;28;19970;-84
2023/02/10 03:39:35;;;;;;;;;;;;;;;;;;5029311;28;19920;-84
2023/02/10 03:42:01;;;;;;;;;;;;;;;;;;5033855;28;20392;-84
2023/02/10 03:44:27;;;;;;;;;;;;;;;;;;5028522;28;20037;-83
2023/02/10 03:46:53;;;;;;;;;;;;;;;;;;5055102;28;19977;-83
2023/02/10 03:49:19;;;;;;;;;;;;;;;;;;5051465;28;19977;-84
2023/02/10 03:51:45;;;;;;;;;;;;;;;;;;5025289;28;19944;-84
2023/02/10 03:54:11;;;;;;;;;;;;;;;;;;5029481;28;20216;-84
2023/02/10 03:56:37;;;;;;;;;;;;;;;;;;5033620;28;20023;-84
2023/02/10 03:59:03;;;;;;;;;;;;;;;;;;5043490;28;19928;-84
2023/02/10 04:01:29;;;;;;;;;;;;;;;;;;5044405;28;19951;-83
2023/02/10 04:03:55;;;;;;;;;;;;;;;;;;5048634;28;21146;-84
2023/02/10 04:06:20;;;;;;;;;;;;;;;;;;5053483;28;19955;-84
2023/02/10 04:08:46;;;;;;;;;;;;;;;;;;5037846;28;20375;-84
2023/02/10 04:11:13;;;;;;;;;;;;;;;;;;5049512;28;20459;-84
2023/02/10 04:13:39;;;;;;;;;;;;;;;;;;5035263;28;19931;-84
2023/02/10 04:16:05;;;;;;;;;;;;;;;;;;5032113;28;19920;-85
2023/02/10 04:18:31;;;;;;;;;;;;;;;;;;5032529;28;19990;-84
2023/02/10 04:20:57;;;;;;;;;;;;;;;;;;5040285;28;19920;-85
2023/02/10 04:23:23;;;;;;;;;;;;;;;;;;5028080;28;19947;-85
2023/02/10 04:25:49;;;;;;;;;;;;;;;;;;5029939;28;19929;-84
2023/02/10 04:28:15;;;;;;;;;;;;;;;;;;5028635;28;19986;-84
2023/02/10 04:30:40;;;;;;;;;;;;;;;;;;5025252;28;19946;-84
2023/02/10 04:33:06;;;;;;;;;;;;;;;;;;5034266;28;20227;-84
2023/02/10 04:35:32;;;;;;;;;;;;;;;;;;5020002;28;21269;-83
2023/02/10 04:37:58;;;;;;;;;;;;;;;;;;5044742;28;20050;-84
2023/02/10 04:40:24;;;;;;;;;;;;;;;;;;5033503;28;21152;-84
2023/02/10 04:42:50;;;;;;;;;;;;;;;;;;5034742;28;20108;-84
2023/02/10 04:45:16;;;;;;;;;;;;;;;;;;5022771;28;19947;-85
2023/02/10 04:47:42;;;;;;;;;;;;;;;;;;5021204;28;20489;-84
2023/02/10 04:50:08;;;;;;;;;;;;;;;;;;5040826;28;20500;-85
2023/02/10 04:52:34;;;;;;;;;;;;;;;;;;5019602;28;21690;-84
2023/02/10 04:55:00;;;;;;;;;;;;;;;;;;5025313;28;20047;-83
2023/02/10 04:57:26;;;;;;;;;;;;;;;;;;5010913;28;20734;-85
2023/02/10 04:59:52;;;;;;;;;;;;;;;;;;5000062;28;20410;-84
2023/02/10 05:02:18;;;;;;;;;;;;;;;;;;5030059;28;20632;-85
2023/02/10 05:04:44;;;;;;;;;;;;;;;;;;5047891;22;19936;-87
2023/02/10 05:07:11;;;;;;;;;;;;;;;;;;4999774;28;19929;-87
2023/02/10 05:09:37;;;;;;;;;;;;;;;;;;4987626;28;19921;-86
2023/02/10 05:12:03;;;;;;;;;;;;;;;;;;4997501;28;20515;-86
2023/02/10 05:14:29;;;;;;;;;;;;;;;;;;4972884;28;19930;-85
2023/02/10 05:16:55;;;;;;;;;;;;;;;;;;4967901;28;20507;-85
2023/02/10 05:19:21;;;;;;;;;;;;;;;;;;4978040;28;20491;-84
2023/02/10 05:21:47;;;;;;;;;;;;;;;;;;4989510;28;19922;-85
2023/02/10 05:24:13;;;;;;;;;;;;;;;;;;4989058;28;19929;-85
2023/02/10 05:26:39;;;;;;;;;;;;;;;;;;4974067;28;20028;-85
2023/02/10 05:29:05;;;;;;;;;;;;;;;;;;4983090;28;21244;-85
2023/02/10 05:31:31;;;;;;;;;;;;;;;;;;4970750;28;19922;-85
2023/02/10 05:33:56;;;;;;;;;;;;;;;;;;4980773;28;19929;-85
2023/02/10 05:36:22;;;;;;;;;;;;;;;;;;4970921;28;19953;-85
2023/02/10 05:41:33;;;;;;;;;;;;;;;;;;4982107;28;20023;-85
2023/02/10 05:43:59;;;;;;;;;;;;;;;;;;4979618;28;20187;-85
2023/02/10 05:46:25;;;;;;;;;;;;;;;;;;4987677;28;21044;-85
2023/02/10 05:48:51;;;;;;;;;;;;;;;;;;4975905;28;20269;-85
2023/02/10 05:51:17;;;;;;;;;;;;;;;;;;4976816;28;20311;-85
2023/02/10 05:53:43;;;;;;;;;;;;;;;;;;4974884;28;20006;-85
2023/02/10 05:56:09;;;;;;;;;;;;;;;;;;4992255;28;20381;-85
2023/02/10 05:58:35;;;;;;;;;;;;;;;;;;4977770;28;19952;-85
2023/02/10 06:01:01;;;;;;;;;;;;;;;;;;4966742;28;20538;-85
2023/02/10 06:03:27;;;;;;;;;;;;;;;;;;4988069;28;19932;-85
2023/02/10 06:05:53;;;;;;;;;;;;;;;;;;4992094;28;20008;-85
2023/02/10 06:08:19;;;;;;;;;;;;;;;;;;4974443;28;19936;-85
2023/02/10 06:10:45;;;;;;;;;;;;;;;;;;4974541;28;19931;-85
2023/02/10 06:13:10;;;;;;;;;;;;;;;;;;4991365;28;19921;-85
2023/02/10 06:15:36;;;;;;;;;;;;;;;;;;4988081;28;19922;-85
2023/02/10 06:18:02;;;;;;;;;;;;;;;;;;4974524;28;19937;-85
2023/02/10 06:20:28;;;;;;;;;;;;;;;;;;4986830;28;19926;-85
2023/02/10 06:22:54;;;;;;;;;;;;;;;;;;4973852;28;20155;-85
2023/02/10 06:25:20;;;;;;;;;;;;;;;;;;4970884;28;19936;-85
2023/02/10 06:27:46;;;;;;;;;;;;;;;;;;4971560;28;19922;-85
2023/02/10 06:30:12;;;;;;;;;;;;;;;;;;4990478;28;19922;-85
2023/02/10 06:32:38;;;;;;;;;;;;;;;;;;4963150;28;19927;-85
2023/02/10 06:35:04;;;;;;;;;;;;;;;;;;4987645;28;19991;-85
2023/02/10 06:37:30;;;;;;;;;;;;;;;;;;4978584;28;19922;-85
2023/02/10 06:39:56;;;;;;;;;;;;;;;;;;4991756;28;19929;-84
2023/02/10 06:42:22;;;;;;;;;;;;;;;;;;4982756;28;20460;-86
2023/02/10 06:44:48;;;;;;;;;;;;;;;;;;4975800;28;19995;-85
2023/02/10 06:47:14;;;;;;;;;;;;;;;;;;4974235;28;19934;-85
2023/02/10 06:49:40;;;;;;;;;;;;;;;;;;4975383;28;19930;-85
2023/02/10 06:52:05;;;;;;;;;;;;;;;;;;4982453;28;19926;-85
2023/02/10 06:54:31;;;;;;;;;;;;;;;;;;4988236;28;19953;-85
2023/02/10 06:56:57;;;;;;;;;;;;;;;;;;4977360;28;19960;-85
2023/02/10 06:59:23;;;;;;;;;;;;;;;;;;4967083;28;19933;-85
2023/02/10 07:01:49;;;;;;;;;;;;;;;;;;4979691;28;19929;-85
2023/02/10 07:04:15;;;;;;;;;;;;;;;;;;4991465;28;19940;-85
2023/02/10 07:06:41;;;;;;;;;;;;;;;;;;4991674;28;19922;-85
2023/02/10 07:09:07;;;;;;;;;;;;;;;;;;4978504;28;19921;-84
2023/02/10 07:11:33;;;;;;;;;;;;;;;;;;4975035;28;20238;-85
2023/02/10 07:13:59;;;;;;;;;;;;;;;;;;4987412;28;19926;-85
2023/02/10 07:16:25;;;;;;;;;;;;;;;;;;4988689;28;21186;-85
2023/02/10 07:18:51;;;;;;;;;;;;;;;;;;4983861;28;19926;-85
2023/02/10 07:21:17;;;;;;;;;;;;;;;;;;4980354;28;19922;-85
2023/02/10 07:23:43;;;;;;;;;;;;;;;;;;4985066;28;19930;-85
2023/02/10 07:26:10;;;;;;;;;;;;;;;;;;4980350;28;20020;-85
2023/02/10 07:28:36;;;;;;;;;;;;;;;;;;4982984;28;22049;-85
2023/02/10 07:31:02;;;;;;;;;;;;;;;;;;4997683;28;20750;-86
2023/02/10 07:33:28;;;;;;;;;;;;;;;;;;4983099;28;19921;-85
2023/02/10 07:35:54;;;;;;;;;;;;;;;;;;4982247;28;20016;-85
2023/02/10 07:38:20;;;;;;;;;;;;;;;;;;4991880;28;19922;-85
2023/02/10 07:40:46;;;;;;;;;;;;;;;;;;4995296;28;19983;-84
2023/02/10 07:43:12;;;;;;;;;;;;;;;;;;4999157;28;19936;-85
2023/02/10 07:45:38;;;;;;;;;;;;;;;;;;4997330;28;19921;-86
2023/02/10 07:48:04;;;;;;;;;;;;;;;;;;4998125;28;19936;-84
2023/02/10 07:50:30;;;;;;;;;;;;;;;;;;4980677;28;19921;-85
2023/02/10 07:52:56;;;;;;;;;;;;;;;;;;4986468;28;19926;-86
2023/02/10 07:55:22;;;;;;;;;;;;;;;;;;5002832;28;19925;-85
2023/02/10 07:57:48;;;;;;;;;;;;;;;;;;4988659;28;19975;-85
2023/02/10 08:00:14;;;;;;;;;;;;;;;;;;4986899;28;20382;-85
2023/02/10 08:02:40;;;;;;;;;;;;;;;;;;5002175;28;19944;-85
2023/02/10 08:05:06;;;;;;;;;;;;;;;;;;4990857;28;20483;-86
2023/02/10 08:07:32;;;;;;;;;;;;;;;;;;4976526;28;20080;-85
2023/02/10 08:09:58;;;;;;;;;;;;;;;;;;4997224;28;20015;-85
2023/02/10 08:12:24;;;;;;;;;;;;;;;;;;4988395;28;19969;-84
2023/02/10 08:14:50;;;;;;;;;;;;;;;;;;4984946;28;20304;-85
2023/02/10 08:17:16;;;;;;;;;;;;;;;;;;4983343;28;20322;-86
2023/02/10 08:19:41;;;;;;;;;;;;;;;;;;4986794;28;22047;-85
2023/02/10 08:22:08;;;;;;;;;;;;;;;;;;4989740;28;19995;-85
2023/02/10 08:24:34;;;;;;;;;;;;;;;;;;4990149;28;20019;-84
2023/02/10 08:27:00;;;;;;;;;;;;;;;;;;4988732;28;20134;-85
2023/02/10 08:29:26;;;;;;;;;;;;;;;;;;4992956;28;19964;-84
2023/02/10 08:31:52;;;;;;;;;;;;;;;;;;5017973;28;19921;-85
2023/02/10 08:34:18;;;;;;;;;;;;;;;;;;5005578;28;19964;-84
2023/02/10 08:36:43;;;;;;;;;;;;;;;;;;4992920;28;20285;-85
2023/02/10 08:39:09;;;;;;;;;;;;;;;;;;4998772;28;19925;-84
2023/02/10 08:41:35;;;;;;;;;;;;;;;;;;4982806;28;19933;-84
2023/02/10 08:44:01;;;;;;;;;;;;;;;;;;5007286;28;19983;-84
2023/02/10 08:46:27;;;;;;;;;;;;;;;;;;4985357;28;19922;-84
2023/02/10 08:48:53;;;;;;;;;;;;;;;;;;4987107;28;19929;-86
2023/02/10 08:51:19;;;;;;;;;;;;;;;;;;4978027;28;19964;-86
2023/02/10 08:53:45;;;;;;;;;;;;;;;;;;4982765;28;20295;-86
2023/02/10 08:56:11;;;;;;;;;;;;;;;;;;4995326;28;19948;-85
2023/02/10 08:58:37;;;;;;;;;;;;;;;;;;4992694;28;19930;-85
2023/02/10 09:01:03;;;;;;;;;;;;;;;;;;4993940;28;19946;-85
2023/02/10 09:03:29;;;;;;;;;;;;;;;;;;4983436;28;19939;-86
2023/02/10 09:05:55;;;;;;;;;;;;;;;;;;4994475;28;19936;-85
2023/02/10 09:08:21;;;;;;;;;;;;;;;;;;4989237;28;19922;-85
2023/02/10 09:10:47;;;;;;;;;;;;;;;;;;4976730;28;19965;-85
2023/02/10 09:13:13;;;;;;;;;;;;;;;;;;4977759;28;19967;-86
2023/02/10 09:15:39;;;;;;;;;;;;;;;;;;4980453;28;19929;-85
2023/02/10 09:18:05;;;;;;;;;;;;;;;;;;4976444;28;19960;-85
2023/02/10 09:20:31;;;;;;;;;;;;;;;;;;4981721;28;19921;-85
2023/02/10 09:22:57;;;;;;;;;;;;;;;;;;4966732;28;19921;-85
2023/02/10 09:25:23;;;;;;;;;;;;;;;;;;4997961;28;19957;-85
2023/02/10 09:27:49;;;;;;;;;;;;;;;;;;4984071;28;19933;-87
2023/02/10 09:30:15;;;;;;;;;;;;;;;;;;4980631;28;19929;-85
2023/02/10 09:32:41;;;;;;;;;;;;;;;;;;4989911;28;19921;-86
2023/02/10 09:35:07;;;;;;;;;;;;;;;;;;4983191;28;20024;-86
2023/02/10 09:37:32;;;;;;;;;;;;;;;;;;4992031;28;20431;-85
2023/02/10 09:39:58;;;;;;;;;;;;;;;;;;4992256;28;19984;-86
2023/02/10 09:42:25;;;;;;;;;;;;;;;;;;4991406;28;19929;-86
2023/02/10 09:44:51;;;;;;;;;;;;;;;;;;4980313;28;20036;-85
2023/02/10 09:47:17;;;;;;;;;;;;;;;;;;4983606;28;20016;-85
2023/02/10 09:49:43;;;;;;;;;;;;;;;;;;4994708;28;20068;-86
2023/02/10 09:52:09;;;;;;;;;;;;;;;;;;4995829;28;19931;-86
2023/02/10 09:54:35;;;;;;;;;;;;;;;;;;4996270;28;20012;-86
2023/02/10 09:57:01;;;;;;;;;;;;;;;;;;4978525;28;19953;-85
2023/02/10 09:59:27;;;;;;;;;;;;;;;;;;4977700;28;19921;-86
2023/02/10 10:01:53;;;;;;;;;;;;;;;;;;4997075;28;19925;-86
2023/02/10 10:04:19;;;;;;;;;;;;;;;;;;4992581;28;19925;-86
2023/02/10 10:06:45;;;;;;;;;;;;;;;;;;4989088;28;20007;-87
2023/02/10 10:09:13;;;;;;;;;;;;;;;;;;4995782;28;20342;-86
2023/02/10 10:11:39;;;;;;;;;;;;;;;;;;4979949;28;20415;-85
2023/02/10 10:14:05;;;;;;;;;;;;;;;;;;4988561;28;19921;-87
2023/02/10 10:16:31;;;;;;;;;;;;;;;;;;4986558;28;19921;-87
2023/02/10 10:18:56;;;;;;;;;;;;;;;;;;4990080;28;20177;-85
2023/02/10 10:21:22;;;;;;;;;;;;;;;;;;4982819;28;20344;-85
2023/02/10 10:23:48;;;;;;;;;;;;;;;;;;4983337;28;20349;-86
2023/02/10 10:26:14;;;;;;;;;;;;;;;;;;4985255;28;19925;-86
2023/02/10 10:28:40;;;;;;;;;;;;;;;;;;4997647;28;19971;-86
2023/02/10 10:31:06;;;;;;;;;;;;;;;;;;5005323;28;20586;-86
2023/02/10 10:33:32;;;;;;;;;;;;;;;;;;5003644;28;20446;-83
2023/02/10 10:36:01;;;;;;;;;;;;;;;;;;4982788;28;20278;-84
2023/02/10 10:38:27;;;;;;;;;;;;;;;;;;5005844;28;19925;-84
2023/02/10 10:40:52;;;;;;;;;;;;;;;;;;4990216;28;19948;-84
2023/02/10 10:43:18;;;;;;;;;;;;;;;;;;4998984;28;20384;-83
2023/02/10 10:45:44;;;;;;;;;;;;;;;;;;4986553;28;19921;-84
2023/02/10 10:48:10;;;;;;;;;;;;;;;;;;5007877;28;20008;-83
2023/02/10 10:50:36;;;;;;;;;;;;;;;;;;4989087;28;19921;-83
2023/02/10 10:53:02;;;;;;;;;;;;;;;;;;4989740;28;19921;-83
2023/02/10 10:55:28;;;;;;;;;;;;;;;;;;4993508;28;20404;-85
2023/02/10 10:57:54;;;;;;;;;;;;;;;;;;4984720;28;20390;-85
2023/02/10 11:00:21;;;;;;;;;;;;;;;;;;4988462;28;19921;-85
2023/02/10 11:02:47;;;;;;;;;;;;;;;;;;4989304;28;19925;-86
2023/02/10 11:08:07;;;;;;;;;;;;;;;;;;5001598;28;20399;-85
2023/02/10 11:10:33;;;;;;;;;;;;;;;;;;4985522;28;19929;-86
2023/02/10 11:13:01;;;;;;;;;;;;;;;;;;4985395;28;19932;-85
2023/02/10 11:15:27;;;;;;;;;;;;;;;;;;4972932;28;20019;-85
2023/02/10 11:17:53;;;;;;;;;;;;;;;;;;4990265;28;19933;-84
2023/02/10 11:20:19;;;;;;;;;;;;;;;;;;4986174;28;19933;-85
2023/02/10 11:22:45;;;;;;;;;;;;;;;;;;4982486;28;19930;-85
2023/02/10 11:25:11;;;;;;;;;;;;;;;;;;5001435;28;20381;-85
2023/02/10 11:27:37;;;;;;;;;;;;;;;;;;4972970;28;20680;-85
2023/02/10 11:30:02;;;;;;;;;;;;;;;;;;4997565;28;20281;-86
2023/02/10 11:32:28;;;;;;;;;;;;;;;;;;4979110;28;19921;-86
2023/02/10 11:34:54;;;;;;;;;;;;;;;;;;4990522;28;20000;-85
2023/02/10 11:37:20;;;;;;;;;;;;;;;;;;5001545;28;19947;-85
2023/02/10 11:39:47;;;;;;;;;;;;;;;;;;4982566;28;20185;-85
2023/02/10 11:42:30;;;;;;;;;;;;;;;;;;4990333;28;19980;-86
2023/02/10 11:44:57;;;;;;;;;;;;;;;;;;4989230;28;19976;-85
2023/02/10 11:47:22;;;;;;;;;;;;;;;;;;5005699;28;19925;-85
2023/02/10 11:49:52;;;;;;;;;;;;;;;;;;5005406;28;19930;-86
2023/02/10 11:52:18;;;;;;;;;;;;;;;;;;4992651;28;19980;-86
2023/02/10 11:54:51;;;;;;;;;;;;;;;;;;4985384;28;19932;-87
2023/02/10 12:00:01;;;;;;;;;;;;;;;;;;4993565;28;20408;-85
2023/02/10 12:02:27;;;;;;;;;;;;;;;;;;4980843;28;19925;-87
2023/02/10 12:04:53;;;;;;;;;;;;;;;;;;4990619;28;20081;-87
2023/02/10 12:07:22;;;;;;;;;;;;;;;;;;4996442;28;19921;-86
2023/02/10 12:09:48;;;;;;;;;;;;;;;;;;4978175;28;19937;-87
2023/02/10 12:12:14;;;;;;;;;;;;;;;;;;5001038;28;20392;-86
2023/02/10 12:14:40;;;;;;;;;;;;;;;;;;5000943;28;19936;-85
2023/02/10 12:17:06;;;;;;;;;;;;;;;;;;4987527;28;19928;-86
2023/02/10 12:19:35;;;;;;;;;;;;;;;;;;4986478;28;20027;-86
2023/02/10 12:22:04;;;;;;;;;;;;;;;;;;5001459;28;19925;-86
2023/02/10 12:24:33;;;;;;;;;;;;;;;;;;4982921;28;20333;-85
2023/02/10 12:26:59;;;;;;;;;;;;;;;;;;4985023;28;19934;-86
2023/02/10 12:29:25;;;;;;;;;;;;;;;;;;4983734;28;20060;-85
2023/02/10 12:32:03;;;;;;;;;;;;;;;;;;5004074;28;19921;-87
2023/02/10 12:34:32;;;;;;;;;;;;;;;;;;4981758;28;19925;-86
2023/02/10 12:36:58;;;;;;;;;;;;;;;;;;4999743;28;20396;-86
2023/02/10 12:39:27;;;;;;;;;;;;;;;;;;5004849;28;19922;-86
2023/02/10 12:41:53;;;;;;;;;;;;;;;;;;4975773;28;19969;-85
2023/02/10 12:44:21;;;;;;;;;;;;;;;;;;4993384;28;19934;-85
2023/02/10 12:46:50;;;;;;;;;;;;;;;;;;4984181;28;20056;-86
2023/02/10 12:49:19;;;;;;;;;;;;;;;;;;5002667;28;20387;-86
2023/02/10 12:51:45;;;;;;;;;;;;;;;;;;5001932;28;19929;-85
2023/02/10 12:54:11;;;;;;;;;;;;;;;;;;4983971;28;19922;-85
2023/02/10 12:56:39;;;;;;;;;;;;;;;;;;4987263;28;19925;-85
2023/02/10 12:59:08;;;;;;;;;;;;;;;;;;4982028;28;19921;-86
2023/02/10 13:01:34;;;;;;;;;;;;;;;;;;4971807;28;19996;-86
2023/02/10 13:04:00;;;;;;;;;;;;;;;;;;4974964;28;20352;-85
2023/02/10 13:06:26;;;;;;;;;;;;;;;;;;4986192;28;19929;-86
2023/02/10 13:08:52;;;;;;;;;;;;;;;;;;5002514;28;19921;-86
2023/02/10 13:11:18;;;;;;;;;;;;;;;;;;4993908;28;20354;-86
2023/02/10 13:13:44;;;;;;;;;;;;;;;;;;4977506;28;19933;-85
2023/02/10 13:16:10;;;;;;;;;;;;;;;;;;4981634;28;19968;-86
2023/02/10 13:18:36;;;;;;;;;;;;;;;;;;4984953;28;20381;-86
2023/02/10 13:21:02;;;;;;;;;;;;;;;;;;4974773;28;19925;-86
2023/02/10 13:23:48;;;;;;;;;;;7.40;99.90;;;;;;4978868;28;19926;-86
2023/02/10 13:26:14;;;;;;;;;;;;;;;;;;4992569;28;20330;-86
2023/02/10 13:28:40;;;;;;;;;;;;;;;;;;4996467;28;19929;-86
2023/02/10 13:31:06;;;;;;;;;;;;;;;;;;4990955;28;20000;-85
2023/02/10 13:33:32;;;;;;;;;;;;;;;;;;4996352;28;19984;-87
2023/02/10 13:35:58;;;;;;;;;;;;;;;;;;4994912;28;20518;-86
2023/02/10 13:38:29;;;;;;;;;;;;;;;;;;4978350;28;19921;-86
2023/02/10 13:43:40;;;;;;;;;;;;;;;;;;4988506;28;20034;-85
2023/02/10 13:46:06;;;;;;;;;;;;;;;;;;4987271;28;20012;-86
2023/02/10 13:48:32;;;;;;;;;;;;;;;;;;4975976;28;19921;-87
2023/02/10 13:50:58;;;;;;;;;;;;;;;;;;4993484;28;21098;-86
2023/02/10 13:53:24;;;;;;;;;;;;;;;;;;4969435;28;20316;-86
2023/02/10 13:55:50;;;;;;;;;;;;;;;;;;4991639;28;19925;-86
2023/02/10 13:58:16;;;;;;;;;;;;;;;;;;4970018;28;19932;-86
2023/02/10 14:00:42;;;;;;;;;;;;;;;;;;4985986;28;19945;-86
2023/02/10 14:03:08;;;;;;;;;;;;;;;;;;4992553;28;19967;-86
2023/02/10 14:05:34;;;;;;;;;;;;;;;;;;4975667;28;20165;-86
2023/02/10 14:08:00;;;;;;;;;;;;;;;;;;4992194;28;19945;-85
2023/02/10 14:10:26;;;;;;;;;;;;;;;;;;4991505;28;20553;-86
2023/02/10 14:12:56;;;;;;;;;;;8.10;99.90;;;;;;4974955;28;19979;-86
2023/02/10 14:15:29;;;;;;;;;;;8.00;99.90;;;;;;4991789;28;19926;-86
2023/02/10 14:18:17;;;;;;;;;;;8.00;99.90;;;;;;4995942;28;20213;-87
2023/02/10 14:20:46;;;;;;;;;;;8.00;99.90;;;;;;4972789;28;19929;-87
2023/02/10 14:23:18;;;;;;;;;;;8.10;99.90;;;;;;4986846;28;19928;-86
2023/02/10 14:25:45;;;;;;;;;;;8.10;99.90;;;;;;4997412;28;20279;-87
2023/02/10 14:28:19;;;;;;;;;;;8.10;99.90;;;;;;4979244;28;20307;-85
2023/02/10 14:30:51;;;;;;;;;;;8.10;99.90;;;;;;4990258;28;19928;-86
2023/02/10 14:33:36;;;;;;;;;;;8.10;99.90;;;;;;4986186;28;19929;-85
2023/02/10 14:36:06;;;;;;;;;;;8.10;99.90;;;;;;5000846;28;19972;-86
2023/02/10 14:38:35;;;;;;;;;;;8.10;99.90;;;;;;4999677;28;20396;-85
2023/02/10 14:41:02;;;;;;;;;;;8.10;99.90;;;;;;4976074;28;19948;-85
2023/02/10 14:43:31;;;;;;;;;;;8.10;99.90;;;;;;4977645;28;19940;-85
2023/02/10 14:46:03;;;;;;;;;;;8.10;99.90;;;;;;4984513;28;19922;-87
2023/02/10 14:48:32;;;;;;;;;;;8.10;99.90;;;;;;4982098;28;19922;-85
2023/02/10 14:51:04;;;;;;;;;;;8.00;99.90;;;;;;5001838;28;19960;-86
2023/02/10 14:53:30;;;;;;;;;;;8.00;99.90;;;;;;5001087;28;20012;-84
2023/02/10 14:55:57;;;;;;;;;;;8.00;99.90;;;;;;4981746;28;19921;-85
2023/02/10 14:58:24;;;;;;;;;;;8.00;99.90;;;;;;4985347;28;19968;-85
2023/02/10 15:01:05;;;;;;;;;;;8.00;99.90;;;;;;4990719;28;19921;-85
2023/02/10 15:03:32;;;;;;;;;;;7.90;99.90;;;;;;5000848;28;19925;-86
2023/02/10 15:06:09;;;;;;;;;;;7.90;99.90;;;;;;5003196;28;19925;-85
2023/02/10 15:08:43;;;;;;;;;;;8.00;99.90;;;;;;4985815;28;19921;-85
2023/02/10 15:11:13;;;;;;;;;;;8.00;99.90;;;;;;5002391;28;19928;-86
2023/02/10 15:13:46;;;;;;;;;;;8.00;99.90;;;;;;5002107;28;20391;-85
2023/02/10 15:16:18;;;;;;;;;;;7.90;99.90;;;;;;5004614;28;20284;-85
2023/02/10 15:18:45;;;;;;;;;;;;;;;;;;4978339;28;20018;-84
2023/02/10 15:21:14;;;;;;;;;;;;;;;;;;4982286;28;19936;-85
2023/02/10 15:23:46;;;;;;;;;;;8.00;99.90;;;;;;4977190;28;19937;-85
2023/02/10 15:26:12;;;;;;;;;;;;;;;;;;4995723;28;19922;-85
2023/02/10 15:28:38;;;;;;;;;;;;;;;;;;4980997;28;19930;-85
2023/02/10 15:31:07;;;;;;;;;;;;;;;;;;4975720;28;20181;-86
2023/02/10 15:33:42;;;;;;;;;;;;;;;;;;4968246;28;19925;-84
2023/02/10 15:36:11;;;;;;;;;;;;;;;;;;5001996;28;19922;-85
2023/02/10 15:38:42;;;;;;;;;;;;;;;;;;4994496;28;20110;-86
2023/02/10 15:41:08;;;;;;;;;;;;;;;;;;4999076;28;19922;-85
2023/02/10 15:43:45;;;;;;;;;;;;;;;;;;4977209;28;19933;-85
2023/02/10 15:46:11;;;;;;;;;;;;;;;;;;5002737;28;19921;-84
2023/02/10 15:48:37;;;;;;;;;;;;;;;;;;4987853;28;20288;-85
2023/02/10 15:51:03;;;;;;;;;;;;;;;;;;5006344;28;20410;-85
2023/02/10 15:53:29;;;;;;;;;;;;;;;;;;4996764;28;19929;-85
2023/02/10 15:55:54;;;;;;;;;;;;;;;;;;4985808;28;19984;-85
2023/02/10 15:58:20;;;;;;;;;;;;;;;;;;4996078;28;19933;-84
2023/02/10 16:00:46;;;;;;;;;;;;;;;;;;4995612;28;19929;-86
2023/02/10 16:03:14;;;;;;;;;;;;;;;;;;4991292;28;19925;-84
2023/02/10 16:05:40;;;;;;;;;;;;;;;;;;4984932;28;19929;-85
2023/02/10 16:08:06;;;;;;;;;;;;;;;;;;5003998;28;19921;-85
2023/02/10 16:10:32;;;;;;;;;;;;;;;;;;5002292;28;20436;-86
2023/02/10 16:12:58;;;;;;;;;;;;;;;;;;4987252;28;19921;-85
2023/02/10 16:15:24;;;;;;;;;;;;;;;;;;5001963;28;19922;-84
2023/02/10 16:17:50;;;;;;;;;;;;;;;;;;4985305;28;21011;-85
2023/02/10 16:20:17;;;;;;;;;;;;;;;;;;4968989;28;20448;-85
2023/02/10 16:22:43;;;;;;;;;;;;;;;;;;4995518;28;19926;-86
2023/02/10 16:25:09;;;;;;;;;;;;;;;;;;4991247;28;19932;-86
2023/02/10 16:27:35;;;;;;;;;;;;;;;;;;4977529;28;19997;-85
2023/02/10 16:30:01;;;;;;;;;;;;;;;;;;4997280;28;20007;-86
2023/02/10 16:32:27;;;;;;;;;;;;;;;;;;4981993;28;19964;-86
2023/02/10 16:34:53;;;;;;;;;;;;;;;;;;4975306;28;19937;-85
2023/02/10 16:37:19;;;;;;;;;;;;;;;;;;4978187;28;20623;-85
2023/02/10 16:39:45;;;;;;;;;;;;;;;;;;4980269;28;19922;-83